Time;durP1;ratioP1;P1;durP2;ratioP2;P2;SDS_P1;SDS_P2;PMS_P1;PMS_P2;Temp;Humidity;BMP_temperature;BMP_pressure;BME280_temperature;BME280_humidity;BME280_pressure;Samples;Min_cycle;Max_cycle;Signal;HPM_P1;HPM_P2
2022/12/22 03:25:57;;;;;;;36.63;34.83;;;9.00;99.90;;;;;;5072221;28;20182;-79
2022/12/22 03:28:26;;;;;;;36.17;34.37;;;9.20;99.90;;;;;;5073683;28;20212;-78
2022/12/22 03:31:00;;;;;;;6.73;6.33;;;9.20;99.90;;;;;;5073424;28;20205;-79
2022/12/22 03:33:27;;;;;;;9.53;7.80;;;9.30;99.90;;;;;;5072671;28;20213;-78
2022/12/22 03:35:52;;;;;;;25.23;23.87;;;9.40;99.90;;;;;;5072057;28;20596;-79
2022/12/22 03:38:19;;;;;;;12.07;11.27;;;9.40;99.90;;;;;;5071393;28;20208;-79
2022/12/22 03:40:44;;;;;;;16.03;15.33;;;9.40;99.90;;;;;;5071265;28;20181;-79
2022/12/22 03:46:29;;;;;;;5.30;5.10;;;9.40;99.90;;;;;;5072402;28;20185;-79
2022/12/22 03:49:09;;;;;;;11.97;11.33;;;9.50;99.90;;;;;;5071990;28;20253;-79
2022/12/22 03:51:43;;;;;;;15.03;14.40;;;9.50;99.90;;;;;;5072776;28;20178;-79
2022/12/22 03:54:13;;;;;;;6.30;6.10;;;9.50;99.90;;;;;;5079352;28;20181;-78
2022/12/22 03:56:39;;;;;;;49.40;47.03;;;9.60;99.90;;;;;;5076490;28;20265;-79
2022/12/22 03:59:05;;;;;;;50.77;48.37;;;9.70;99.90;;;;;;5074390;28;20692;-79
2022/12/22 04:01:33;;;;;;;12.13;11.63;;;9.80;99.90;;;;;;5073501;28;20272;-79
2022/12/22 04:03:59;;;;;;;10.07;9.67;;;9.90;99.90;;;;;;5081251;28;20685;-78
2022/12/22 04:06:25;;;;;;;6.50;6.30;;;10.10;99.90;;;;;;5074994;28;20186;-78
2022/12/22 04:08:51;;;;;;;5.13;4.93;;;10.20;99.90;;;;;;5089208;28;20209;-77
2022/12/22 04:14:02;;;;;;;47.27;44.90;;;10.20;99.90;;;;;;5071240;28;20181;-78
2022/12/22 04:16:28;;;;;;;50.13;47.77;;;10.20;99.90;;;;;;5086683;28;20598;-78
2022/12/22 04:18:54;;;;;;;56.53;53.80;;;10.30;99.90;;;;;;5063089;28;20365;-78
2022/12/22 04:21:20;;;;;;;51.33;48.93;;;10.30;99.90;;;;;;5071078;28;20588;-79
2022/12/22 04:23:50;;;;;;;42.23;40.23;;;10.20;99.90;;;;;;5069764;28;20186;-79
2022/12/22 04:26:17;;;;;;;34.77;33.07;;;10.20;99.90;;;;;;5070897;28;20184;-78
2022/12/22 04:28:43;;;;;;;21.10;20.13;;;10.20;99.90;;;;;;5069975;28;20206;-78
2022/12/22 04:31:09;;;;;;;22.57;21.50;;;10.20;99.90;;;;;;5068565;28;20275;-78
2022/12/22 04:33:36;;;;;;;21.80;20.73;;;10.20;99.90;;;;;;5070481;28;20185;-78
2022/12/22 04:36:01;;;;;;;19.53;18.53;;;10.20;99.90;;;;;;5072967;28;20208;-78
2022/12/22 04:38:27;;;;;;;11.83;11.33;;;10.20;99.90;;;;;;5071402;28;20225;-78
2022/12/22 04:40:53;;;;;;;15.23;14.63;;;10.20;99.90;;;;;;5072261;28;20174;-78
2022/12/22 04:43:18;;;;;;;14.50;13.80;;;10.20;99.90;;;;;;5073319;28;20209;-78
2022/12/22 04:45:44;;;;;;;15.67;14.83;;;10.20;99.90;;;;;;5073209;28;20219;-78
2022/12/22 04:48:10;;;;;;;17.73;16.73;;;10.20;99.90;;;;;;5071712;28;20746;-78
2022/12/22 04:50:35;;;;;;;19.77;18.80;;;10.30;99.90;;;;;;5060528;28;20214;-77
2022/12/22 04:53:01;;;;;;;26.90;25.60;;;10.30;99.90;;;;;;5057480;28;20181;-78
2022/12/22 04:55:27;;;;;;;24.30;23.10;;;10.30;99.90;;;;;;5090717;28;20177;-77
2022/12/22 04:57:53;;;;;;;27.13;25.80;;;10.30;99.90;;;;;;5092510;28;20204;-78
2022/12/22 05:00:19;;;;;;;25.70;24.57;;;10.20;99.90;;;;;;5075642;28;20676;-78
2022/12/22 05:02:45;;;;;;;27.40;26.13;;;10.20;99.90;;;;;;5072495;28;20184;-78
2022/12/22 05:05:10;;;;;;;26.20;24.60;;;10.30;99.90;;;;;;5072859;28;20182;-78
2022/12/22 05:07:36;;;;;;;25.60;24.33;;;10.30;99.90;;;;;;5072299;28;20812;-78
2022/12/22 05:10:04;;;;;;;27.87;26.43;;;10.30;99.90;;;;;;5072070;28;20728;-78
2022/12/22 05:15:14;;;;;;;21.90;20.83;;;10.40;99.90;;;;;;5074607;28;20182;-78
2022/12/22 05:17:40;;;;;;;10.13;9.63;;;10.40;99.90;;;;;;5076317;28;20220;-79
2022/12/22 05:20:06;;;;;;;5.20;5.00;;;10.60;99.90;;;;;;5079948;28;20181;-76
2022/12/22 05:22:32;;;;;;;23.20;21.70;;;10.70;99.90;;;;;;5073743;28;20174;-76
2022/12/22 05:24:58;;;;;;;115.43;109.73;;;10.80;99.90;;;;;;5071856;28;20231;-77
2022/12/22 05:27:23;;;;;;;92.93;88.20;;;10.80;99.90;;;;;;5072730;28;20609;-77
2022/12/22 05:29:49;;;;;;;86.37;82.10;;;10.80;99.90;;;;;;5072677;28;20266;-76
2022/12/22 05:32:15;;;;;;;76.00;72.30;;;10.80;99.90;;;;;;5072417;28;20170;-77
2022/12/22 05:34:41;;;;;;;6.77;3.73;;;10.80;99.90;;;;;;5072148;28;20188;-77
2022/12/22 05:37:06;;;;;;;5.53;5.13;;;11.00;99.90;;;;;;5073811;28;20335;-77
2022/12/22 05:39:32;;;;;;;5.83;5.53;;;11.00;99.90;;;;;;5072842;28;20189;-77
2022/12/22 05:41:58;;;;;;;7.20;6.70;;;11.00;99.90;;;;;;5073334;28;20181;-62
2022/12/22 05:44:23;;;;;;;5.47;5.17;;;11.10;99.90;;;;;;5072531;28;20201;-64
2022/12/22 05:46:51;;;;;;;6.27;5.43;;;11.20;99.90;;;;;;5072430;28;20864;-63
2022/12/22 05:49:17;;;;;;;6.43;6.03;;;11.20;99.90;;;;;;5072583;28;20210;-63
2022/12/22 05:51:44;;;;;;;6.63;6.17;;;11.20;99.90;;;;;;5072512;28;20265;-62
2022/12/22 05:54:10;;;;;;;5.97;5.57;;;11.20;99.90;;;;;;5072536;28;20174;-62
2022/12/22 05:56:36;;;;;;;6.47;6.07;;;11.10;99.90;;;;;;5072415;28;20601;-66
2022/12/22 05:59:02;;;;;;;5.57;5.17;;;11.10;99.90;;;;;;5071116;28;20206;-66
2022/12/22 06:01:27;;;;;;;5.63;5.13;;;11.10;99.90;;;;;;5071340;28;20189;-66
2022/12/22 06:03:53;;;;;;;5.50;5.00;;;11.10;99.90;;;;;;5072420;28;20266;-65
2022/12/22 06:06:20;;;;;;;5.43;5.10;;;11.00;99.90;;;;;;5072356;28;20182;-65
2022/12/22 06:08:46;;;;;;;8.17;7.50;;;11.00;99.90;;;;;;5070396;28;20210;-66
2022/12/22 06:11:11;;;;;;;12.30;11.57;;;11.00;99.90;;;;;;5071334;28;20181;-66
2022/12/22 06:13:37;;;;;;;11.93;11.03;;;10.90;99.90;;;;;;5072772;28;20559;-66
2022/12/22 06:16:03;;;;;;;10.33;9.63;;;11.00;99.90;;;;;;5071720;28;20173;-66
2022/12/22 06:18:29;;;;;;;8.17;7.67;;;10.90;99.90;;;;;;5072195;28;20241;-66
2022/12/22 06:20:55;;;;;;;8.20;7.60;;;10.80;99.90;;;;;;5072758;28;20712;-67
2022/12/22 06:23:21;;;;;;;12.63;11.83;;;10.70;99.90;;;;;;5072573;28;20319;-66
2022/12/22 06:25:59;;;;;;;15.43;14.63;;;10.60;99.90;;;;;;5063414;28;20178;-67
2022/12/22 06:28:25;;;;;;;23.80;22.13;;;10.50;99.90;;;;;;5052542;28;20217;-66
2022/12/22 06:30:52;;;;;;;20.20;19.10;;;10.50;99.90;;;;;;5054245;28;20178;-66
2022/12/22 06:33:18;;;;;;;21.77;20.17;;;10.50;99.90;;;;;;5071674;28;20558;-67
2022/12/22 06:35:43;;;;;;;43.67;41.10;;;10.30;99.90;;;;;;5071983;28;20174;-66
2022/12/22 06:38:09;;;;;;;43.23;40.40;;;10.30;99.90;;;;;;5071466;28;20212;-66
2022/12/22 06:40:35;;;;;;;61.13;57.67;;;10.20;99.90;;;;;;5066903;28;20201;-65
2022/12/22 06:43:07;;;;;;;44.37;42.03;;;10.20;99.90;;;;;;5063607;28;20187;-65
2022/12/22 06:45:34;;;;;;;51.73;48.90;;;10.20;99.90;;;;;;5071608;28;20182;-66
2022/12/22 06:47:59;;;;;;;52.10;49.40;;;10.20;99.90;;;;;;5071248;28;20682;-66
2022/12/22 06:50:25;;;;;;;40.43;38.03;;;10.20;99.90;;;;;;5071431;28;20227;-66
2022/12/22 06:52:52;;;;;;;53.13;50.13;;;10.20;99.90;;;;;;5071798;28;20201;-66
2022/12/22 06:55:18;;;;;;;48.97;46.13;;;10.20;99.90;;;;;;5071315;28;20225;-66
2022/12/22 06:57:43;;;;;;;52.27;49.37;;;10.30;99.90;;;;;;5070577;28;20577;-66
2022/12/22 07:00:09;;;;;;;39.97;37.77;;;10.40;99.90;;;;;;5071517;28;20186;-66
2022/12/22 07:02:35;;;;;;;33.43;31.37;;;10.40;99.90;;;;;;5071430;28;20204;-66
2022/12/22 07:05:01;;;;;;;6.07;5.53;;;10.50;99.90;;;;;;5071190;28;20189;-66
2022/12/22 07:07:27;;;;;;;7.30;4.30;;;10.60;99.90;;;;;;5071119;28;20197;-66
2022/12/22 07:09:54;;;;;;;8.43;7.30;;;10.60;99.90;;;;;;5071387;28;20266;-66
2022/12/22 07:12:20;;;;;;;5.37;4.87;;;10.60;99.90;;;;;;5071247;28;20181;-67
2022/12/22 07:14:46;;;;;;;7.40;4.80;;;10.60;99.90;;;;;;5071143;28;20234;-67
2022/12/22 07:17:11;;;;;;;8.33;4.40;;;10.70;99.90;;;;;;5093970;23;20205;-67
2022/12/22 07:19:37;;;;;;;5.73;5.23;;;10.80;99.90;;;;;;5086992;28;20212;-68
2022/12/22 07:22:03;;;;;;;6.33;5.73;;;10.70;99.90;;;;;;5081530;28;20602;-68
2022/12/22 07:24:29;;;;;;;5.00;4.43;;;10.70;99.90;;;;;;5071761;28;20178;-68
2022/12/22 07:26:54;;;;;;;5.83;5.00;;;10.60;99.90;;;;;;5054056;28;20555;-68
2022/12/22 07:29:20;;;;;;;7.57;5.37;;;10.50;99.90;;;;;;5090865;28;20304;-68
2022/12/22 07:31:46;;;;;;;12.87;5.70;;;10.40;99.90;;;;;;5091032;28;20215;-68
2022/12/22 07:34:12;;;;;;;7.60;6.87;;;10.40;99.90;;;;;;5078663;28;20177;-68
2022/12/22 07:36:38;;;;;;;7.53;6.87;;;10.40;99.90;;;;;;5089397;28;20177;-68
2022/12/22 07:39:04;;;;;;;12.67;11.80;;;10.40;99.90;;;;;;5072165;28;20194;-68
2022/12/22 07:44:14;;;;;;;12.77;11.57;;;10.30;99.90;;;;;;5091114;28;20177;-68
2022/12/22 07:46:40;;;;;;;15.27;13.00;;;10.20;99.90;;;;;;5091046;28;20169;-68
2022/12/22 07:51:51;;;;;;;25.87;24.33;;;10.20;99.90;;;;;;5090959;28;20177;-68
2022/12/22 07:54:17;;;;;;;14.13;13.13;;;10.30;99.90;;;;;;5090986;28;20257;-68
2022/12/22 07:56:45;;;;;;;9.37;5.70;;;10.50;99.90;;;;;;5072779;28;20204;-68
2022/12/22 07:59:11;;;;;;;12.20;11.27;;;10.60;99.90;;;;;;5090718;28;20200;-68
2022/12/22 08:01:38;;;;;;;20.63;18.80;;;10.80;99.90;;;;;;5072823;28;20181;-68
2022/12/22 08:04:04;;;;;;;20.53;19.07;;;10.90;99.90;;;;;;5090925;28;20177;-68
2022/12/22 08:06:32;;;;;;;15.97;14.73;;;10.80;99.90;;;;;;5091025;28;20246;-68
2022/12/22 08:08:58;;;;;;;14.90;13.70;;;10.80;99.90;;;;;;5094008;28;20201;-68
2022/12/22 08:11:24;;;;;;;6.20;5.23;;;10.70;99.90;;;;;;5095070;28;20702;-68
2022/12/22 08:13:49;;;;;;;9.63;4.90;;;10.60;99.90;;;;;;5095002;28;20255;-68
2022/12/22 08:16:16;;;;;;;8.83;4.63;;;10.70;99.90;;;;;;5094951;28;20272;-68
2022/12/22 08:18:43;;;;;;;10.27;4.73;;;10.70;99.90;;;;;;5094473;28;20212;-68
2022/12/22 08:21:09;;;;;;;6.43;5.50;;;10.60;99.90;;;;;;5094828;28;20225;-68
2022/12/22 08:23:35;;;;;;;8.87;8.07;;;10.50;99.90;;;;;;5094623;28;20696;-68
2022/12/22 08:26:15;;;;;;;16.37;11.27;;;10.60;99.90;;;;;;5094764;28;20210;-68
2022/12/22 08:28:47;;;;;;;14.33;10.40;;;10.80;99.90;;;;;;5094113;28;20197;-68
2022/12/22 08:31:13;;;;;;;11.50;8.93;;;11.00;99.90;;;;;;5094553;28;20637;-68
2022/12/22 08:33:39;;;;;;;21.07;19.43;;;11.00;99.90;;;;;;5094560;28;20180;-68
2022/12/22 08:36:06;;;;;;;22.63;20.73;;;10.90;99.90;;;;;;5084964;28;20173;-68
2022/12/22 08:38:32;;;;;;;22.87;20.77;;;10.80;99.90;;;;;;5074685;28;20205;-68
2022/12/22 08:40:58;;;;;;;19.17;17.80;;;10.80;99.90;;;;;;5074581;28;20200;-68
2022/12/22 08:43:25;;;;;;;16.97;15.73;;;10.70;99.90;;;;;;5093737;28;20268;-68
2022/12/22 08:45:50;;;;;;;15.83;14.87;;;10.80;99.90;;;;;;5111526;28;20203;-68
2022/12/22 08:48:16;;;;;;;21.80;20.37;;;10.90;99.90;;;;;;5094458;28;20193;-68
2022/12/22 08:50:42;;;;;;;20.53;19.13;;;11.00;99.90;;;;;;5093875;28;20773;-68
2022/12/22 08:53:08;;;;;;;19.37;17.87;;;11.10;99.90;;;;;;5094510;28;20681;-68
2022/12/22 08:55:34;;;;;;;12.87;11.80;;;11.30;99.90;;;;;;5094352;28;20208;-68
2022/12/22 08:58:00;;;;;;;12.43;8.67;;;11.40;99.90;;;;;;5093946;28;20224;-68
2022/12/22 09:00:26;;;;;;;9.10;8.20;;;11.50;99.90;;;;;;5094168;28;20184;-68
2022/12/22 09:02:52;;;;;;;11.30;10.37;;;11.70;99.90;;;;;;5094171;28;20607;-68
2022/12/22 09:05:18;;;;;;;22.40;20.60;;;12.00;99.90;;;;;;5093853;28;20185;-68
2022/12/22 09:07:46;;;;;;;22.33;20.60;;;12.10;99.90;;;;;;5093485;28;20315;-68
2022/12/22 09:10:12;;;;;;;22.40;20.67;;;12.10;99.90;;;;;;5094169;28;20326;-67
2022/12/22 09:12:37;;;;;;;9.80;8.63;;;12.40;99.90;;;;;;5093895;28;20180;-68
2022/12/22 09:15:05;;;;;;;11.37;7.67;;;12.60;99.90;;;;;;5094209;28;20667;-68
2022/12/22 09:17:31;;;;;;;12.10;9.33;;;13.00;99.90;;;;;;5093293;28;20196;-68
2022/12/22 09:19:57;;;;;;;9.43;7.87;;;13.30;99.90;;;;;;5092784;28;20192;-67
2022/12/22 09:22:23;;;;;;;20.60;19.03;;;13.70;99.90;;;;;;5093841;28;20188;-68
2022/12/22 09:24:48;;;;;;;18.17;17.00;;;14.30;99.90;;;;;;5093843;28;20181;-68
2022/12/22 09:27:14;;;;;;;12.03;10.97;;;15.20;99.90;;;;;;5093019;28;20664;-68
2022/12/22 09:29:40;;;;;;;8.73;6.73;;;16.00;99.90;;;;;;5093543;28;20267;-68
2022/12/22 09:32:05;;;;;;;6.30;5.73;;;16.50;99.90;;;;;;5075500;28;20187;-68
2022/12/22 09:34:31;;;;;;;6.20;4.13;;;16.30;99.90;;;;;;5093362;28;20242;-68
2022/12/22 09:36:57;;;;;;;6.63;4.87;;;16.00;99.90;;;;;;5093045;28;20181;-67
2022/12/22 09:39:23;;;;;;;6.90;5.23;;;14.80;99.90;;;;;;5093507;28;20262;-67
2022/12/22 09:41:54;;;;;;;6.63;5.47;;;13.40;99.90;;;;;;5093261;28;20188;-68
2022/12/22 09:44:33;;;;;;;13.87;12.73;;;12.00;99.90;;;;;;5093477;28;20192;-67
2022/12/22 09:47:01;;;;;;;8.73;8.03;;;11.20;99.90;;;;;;5092859;28;20185;-67
2022/12/22 09:49:28;;;;;;;6.20;5.37;;;10.80;99.90;;;;;;5092854;28;20295;-67
2022/12/22 09:51:57;;;;;;;38.40;35.93;;;10.50;99.90;;;;;;5093485;28;20618;-67
2022/12/22 09:54:24;;;;;;;47.40;44.67;;;10.40;99.90;;;;;;5093608;28;20184;-67
2022/12/22 09:56:49;;;;;;;9.60;7.83;;;10.30;99.90;;;;;;5092453;28;20660;-67
2022/12/22 09:59:17;;;;;;;14.70;13.50;;;10.20;99.90;;;;;;5093146;28;20197;-67
2022/12/22 10:02:11;;;;;;;33.40;31.40;;;10.20;99.90;;;;;;5093102;28;20181;-67
2022/12/22 10:05:04;;;;;;;38.33;35.93;;;10.10;99.90;;;;;;5074845;28;20172;-67
2022/12/22 10:07:33;;;;;;;33.63;31.40;;;10.10;99.90;;;;;;5091902;28;20239;-67
2022/12/22 10:10:23;;;;;;;29.03;26.97;;;10.10;99.90;;;;;;5092962;28;20207;-68
2022/12/22 10:12:51;;;;;;;24.90;23.00;;;10.10;99.90;;;;;;5074519;28;20181;-67
2022/12/22 10:15:16;;;;;;;19.97;18.27;;;10.10;99.90;;;;;;5093059;28;20266;-68
2022/12/22 10:17:42;;;;;;;11.00;9.83;;;10.10;99.90;;;;;;5092338;28;20304;-67
2022/12/22 10:20:20;;;;;;;13.07;10.17;;;10.10;99.90;;;;;;5092577;28;20189;-68
2022/12/22 10:22:54;;;;;;;8.90;5.93;;;10.10;99.90;;;;;;5099976;28;20181;-67
2022/12/22 10:25:29;;;;;;;7.43;5.80;;;10.10;99.90;;;;;;5113528;28;20717;-67
2022/12/22 10:27:57;;;;;;;26.07;24.40;;;10.10;99.90;;;;;;5092298;28;20208;-68
2022/12/22 10:30:32;;;;;;;11.40;9.40;;;10.20;99.90;;;;;;5074461;28;20224;-68
2022/12/22 10:33:05;;;;;;;66.50;62.80;;;10.30;99.90;;;;;;5092530;28;20571;-68
2022/12/22 10:35:43;;;;;;;83.97;79.47;;;10.40;99.90;;;;;;5092275;28;20204;-67
2022/12/22 10:38:30;;;;;;;76.57;72.33;;;10.40;99.90;;;;;;5091889;28;20569;-67
2022/12/22 10:40:57;;;;;;;72.10;68.40;;;10.40;99.90;;;;;;5091932;28;20184;-67
2022/12/22 10:43:25;;;;;;;67.73;63.73;;;10.40;99.90;;;;;;5091909;28;20183;-67
2022/12/22 10:45:53;;;;;;;53.47;50.47;;;10.40;99.90;;;;;;5092277;28;20176;-67
2022/12/22 10:48:28;;;;;;;42.37;39.73;;;10.40;99.90;;;;;;5091202;28;20224;-67
2022/12/22 10:50:55;;;;;;;53.47;50.40;;;10.40;99.90;;;;;;5092150;28;20300;-67
2022/12/22 10:53:35;;;;;;;41.27;38.60;;;10.50;99.90;;;;;;5091911;28;20650;-67
2022/12/22 10:56:05;;;;;;;52.90;50.00;;;10.40;99.90;;;;;;5091609;28;20177;-67
2022/12/22 10:58:49;;;;;;;56.23;52.93;;;10.30;99.90;;;;;;5091130;28;20756;-67
2022/12/22 11:01:26;;;;;;;73.77;70.00;;;10.30;99.90;;;;;;5079011;28;20185;-67
2022/12/22 11:03:52;;;;;;;74.97;70.77;;;10.30;99.90;;;;;;5071315;28;20235;-67
2022/12/22 11:06:18;;;;;;;71.37;67.03;;;10.40;99.90;;;;;;5071738;28;20177;-68
2022/12/22 11:08:44;;;;;;;87.40;82.53;;;10.40;99.90;;;;;;5070391;28;20197;-69
2022/12/22 11:11:21;;;;;;;127.70;121.10;;;10.50;99.90;;;;;;5052986;28;20648;-68
2022/12/22 11:14:15;;;;;;;66.47;62.77;;;10.50;99.90;;;;;;5071445;28;20252;-68
2022/12/22 11:17:04;;;;;;;68.20;64.53;;;10.40;99.90;;;;;;5071437;28;20205;-67
2022/12/22 11:19:51;;;;;;;71.67;67.77;;;10.50;99.90;;;;;;5070940;28;20585;-67
2022/12/22 11:22:27;;;;;;;57.40;54.00;;;10.50;99.90;;;;;;5053442;28;20181;-68
2022/12/22 11:25:14;;;;;;;45.47;42.83;;;10.50;99.90;;;;;;5071065;28;20557;-67
2022/12/22 11:28:02;;;;;;;39.53;37.17;;;10.50;99.90;;;;;;5052983;28;20206;-67
2022/12/22 11:30:56;;;;;;;42.10;39.23;;;10.50;99.90;;;;;;5071128;28;20303;-67
2022/12/22 11:33:47;;;;;;;41.60;39.10;;;10.50;99.90;;;;;;5071249;28;20275;-67
2022/12/22 11:36:41;;;;;;;39.23;36.90;;;10.50;99.90;;;;;;5071143;28;20264;-67
2022/12/22 11:39:14;;;;;;;51.03;48.23;;;10.50;99.90;;;;;;5063407;28;20210;-68
2022/12/22 11:42:21;;;;;;;32.77;30.70;;;10.50;99.90;;;;;;5070692;28;20189;-67
2022/12/22 11:45:21;;;;;;;19.63;18.13;;;10.50;99.90;;;;;;5048903;28;20189;-67
2022/12/22 11:48:13;;;;;;;16.93;15.80;;;10.50;99.90;;;;;;5070928;28;20669;-67
2022/12/22 11:50:52;;;;;;;20.47;19.13;;;10.50;99.90;;;;;;5071025;28;20633;-67
2022/12/22 11:53:24;;;;;;;9.63;8.93;;;10.60;99.90;;;;;;5053026;28;20178;-67
2022/12/22 11:56:08;;;;;;;9.93;9.07;;;10.70;99.90;;;;;;5053263;28;20597;-67
2022/12/22 11:58:41;;;;;;;16.30;14.67;;;10.70;99.90;;;;;;5052603;28;20632;-67
2022/12/22 12:01:44;;;;;;;15.63;14.43;;;10.70;99.90;;;;;;5053129;28;20215;-67
2022/12/22 12:04:51;;;;;;;14.47;13.40;;;10.70;99.90;;;;;;5070909;28;20183;-67
2022/12/22 12:07:44;;;;;;;13.10;11.80;;;10.80;99.90;;;;;;5086079;28;20182;-68
2022/12/22 12:10:26;;;;;;;18.87;17.20;;;10.80;99.90;;;;;;5074492;28;20300;-68
2022/12/22 12:13:04;;;;;;;37.40;35.20;;;10.90;99.90;;;;;;5070940;28;20187;-68
2022/12/22 12:15:36;;;;;;;33.60;31.50;;;11.00;99.90;;;;;;5070865;28;20198;-68
2022/12/22 12:18:26;;;;;;;25.20;23.70;;;11.10;99.90;;;;;;5070020;28;20224;-68
2022/12/22 12:21:23;;;;;;;16.30;15.20;;;11.10;99.90;;;;;;5052948;28;20246;-68
2022/12/22 12:24:01;;;;;;;20.23;18.83;;;11.10;99.90;;;;;;5052676;28;20627;-68
2022/12/22 12:26:33;;;;;;;22.33;20.93;;;11.20;99.90;;;;;;5052940;28;20272;-68
2022/12/22 12:29:12;;;;;;;10.83;9.70;;;11.30;99.90;;;;;;5070083;28;20213;-68
2022/12/22 12:31:53;;;;;;;14.23;13.07;;;11.30;99.90;;;;;;5057094;28;20718;-68
2022/12/22 12:34:20;;;;;;;25.00;23.37;;;11.40;99.90;;;;;;5090563;28;20192;-68
2022/12/22 12:37:16;;;;;;;38.33;36.13;;;11.50;99.90;;;;;;5090258;28;20203;-68
2022/12/22 12:40:03;;;;;;;31.90;30.00;;;11.50;99.90;;;;;;5090361;28;20190;-68
2022/12/22 12:42:33;;;;;;;20.47;19.20;;;11.70;99.90;;;;;;5090748;28;20176;-68
2022/12/22 12:45:01;;;;;;;5.13;4.30;;;11.70;99.90;;;;;;5090801;28;20189;-67
2022/12/22 12:47:35;;;;;;;4.93;4.43;;;11.80;99.90;;;;;;5090301;28;20279;-68
2022/12/22 12:50:22;;;;;;;5.30;4.50;;;11.80;99.90;;;;;;5090544;28;20454;-68
2022/12/22 12:52:49;;;;;;;6.53;4.80;;;11.80;99.90;;;;;;5090032;28;20722;-68
2022/12/22 12:55:39;;;;;;;8.07;7.37;;;11.90;99.90;;;;;;5091984;28;20560;-68
2022/12/22 12:58:10;;;;;;;18.77;17.50;;;11.90;99.90;;;;;;5094129;28;20196;-68
2022/12/22 13:00:36;;;;;;;32.90;30.73;;;11.90;99.90;;;;;;5086974;28;20193;-67
2022/12/22 13:03:02;;;;;;;33.33;31.30;;;11.80;99.90;;;;;;5072461;28;20609;-68
2022/12/22 13:05:47;;;;;;;36.90;35.10;;;11.80;99.90;;;;;;5073810;28;20204;-68
2022/12/22 13:08:14;;;;;;;29.67;27.87;;;11.70;99.90;;;;;;5073079;28;20212;-68
2022/12/22 13:10:47;;;;;;;31.10;29.50;;;11.70;99.90;;;;;;5055653;28;20212;-68
2022/12/22 13:13:38;;;;;;;34.47;32.70;;;11.70;99.90;;;;;;5073126;28;20539;-68
2022/12/22 13:16:04;;;;;;;31.03;29.30;;;11.70;99.90;;;;;;5068399;28;20193;-68
2022/12/22 13:18:32;;;;;;;27.57;26.00;;;11.60;99.90;;;;;;5098975;23;20603;-66
2022/12/22 13:21:04;;;;;;;30.60;28.97;;;11.60;99.90;;;;;;5093527;28;20672;-66
2022/12/22 13:23:38;;;;;;;26.03;24.80;;;11.70;99.90;;;;;;5092877;28;20181;-66
2022/12/22 13:26:14;;;;;;;11.73;11.10;;;11.70;99.90;;;;;;5092464;28;20276;-66
2022/12/22 13:28:42;;;;;;;9.13;8.43;;;11.80;99.90;;;;;;5093042;28;20204;-66
2022/12/22 13:31:32;;;;;;;12.70;11.73;;;11.80;99.90;;;;;;5093466;28;20173;-66
2022/12/22 13:34:26;;;;;;;9.87;9.27;;;11.90;99.90;;;;;;5093755;28;20212;-67
2022/12/22 13:36:54;;;;;;;9.37;8.80;;;11.80;99.90;;;;;;5092259;28;20178;-66
2022/12/22 13:39:20;;;;;;;9.67;9.27;;;11.80;99.90;;;;;;5094383;28;20539;-66
2022/12/22 13:41:48;;;;;;;10.23;9.57;;;11.80;99.90;;;;;;5092905;28;20215;-66
2022/12/22 13:44:30;;;;;;;10.13;9.57;;;11.80;99.90;;;;;;5092058;28;20200;-66
2022/12/22 13:47:02;;;;;;;10.50;9.93;;;11.80;99.90;;;;;;5091731;28;20184;-67
2022/12/22 13:49:30;;;;;;;8.50;7.90;;;11.80;99.90;;;;;;5093135;28;20735;-67
2022/12/22 13:51:55;;;;;;;5.27;4.50;;;11.70;99.90;;;;;;5091897;28;20280;-66
2022/12/22 13:54:21;;;;;;;26.57;25.37;;;11.60;99.90;;;;;;5097183;28;20204;-66
2022/12/22 13:56:49;;;;;;;8.43;7.93;;;11.50;99.90;;;;;;5093714;28;20276;-66
2022/12/22 13:59:34;;;;;;;3.97;3.70;;;11.40;99.90;;;;;;5092729;28;20200;-66
2022/12/22 14:02:22;;;;;;;4.87;4.57;;;11.40;99.90;;;;;;5092104;28;20184;-66
2022/12/22 14:05:11;;;;;;;4.70;4.40;;;11.40;99.90;;;;;;5092544;28;20189;-66
2022/12/22 14:07:37;;;;;;;4.63;4.43;;;11.40;99.90;;;;;;5092035;28;20238;-66
2022/12/22 14:10:04;;;;;;;8.77;8.23;;;11.30;99.90;;;;;;5093002;28;20205;-66
2022/12/22 14:12:43;;;;;;;7.43;6.80;;;11.30;99.90;;;;;;5092650;28;20192;-67
2022/12/22 14:15:16;;;;;;;9.33;8.77;;;11.30;99.90;;;;;;5092769;28;20199;-67
2022/12/22 14:17:43;;;;;;;17.07;16.07;;;11.30;99.90;;;;;;5091111;28;20181;-67
2022/12/22 14:20:36;;;;;;;26.20;24.27;;;11.30;99.90;;;;;;5093116;28;20185;-67
2022/12/22 14:23:06;;;;;;;24.13;22.63;;;11.30;99.90;;;;;;5089578;28;20200;-67
2022/12/22 14:25:39;;;;;;;33.33;31.43;;;11.20;99.90;;;;;;5092790;28;20246;-67
2022/12/22 14:28:24;;;;;;;38.23;35.97;;;11.20;99.90;;;;;;5091958;28;20295;-67
2022/12/22 14:30:53;;;;;;;35.37;33.17;;;11.20;99.90;;;;;;5092740;28;20231;-67
2022/12/22 14:33:28;;;;;;;32.07;30.27;;;11.10;99.90;;;;;;5092354;28;20188;-67
2022/12/22 14:36:18;;;;;;;28.17;26.27;;;11.00;99.90;;;;;;5097417;28;20183;-67
2022/12/22 14:38:46;;;;;;;25.60;24.10;;;11.00;99.90;;;;;;5091752;28;20204;-67
2022/12/22 14:41:41;;;;;;;27.10;25.27;;;11.00;99.90;;;;;;5092223;28;20785;-67
2022/12/22 14:44:13;;;;;;;36.67;34.87;;;11.00;99.90;;;;;;5090656;28;20181;-66
2022/12/22 14:46:40;;;;;;;35.23;33.23;;;11.10;99.90;;;;;;5092033;28;20554;-66
2022/12/22 14:49:16;;;;;;;34.50;32.73;;;11.10;99.90;;;;;;5091570;28;20208;-66
2022/12/22 14:51:50;;;;;;;32.63;30.77;;;11.20;99.90;;;;;;5092409;28;20179;-67
2022/12/22 14:54:20;;;;;;;29.60;27.87;;;11.20;99.90;;;;;;5092675;28;20717;-67
2022/12/22 14:56:50;;;;;;;16.57;15.57;;;11.30;99.90;;;;;;5083141;28;20661;-66
2022/12/22 14:59:25;;;;;;;9.87;8.93;;;11.30;99.90;;;;;;5090909;28;20673;-66
2022/12/22 15:02:03;;;;;;;5.87;5.33;;;11.40;99.90;;;;;;5078894;28;20176;-66
2022/12/22 15:04:29;;;;;;;8.53;7.23;;;11.40;99.90;;;;;;5090095;28;20347;-66
2022/12/22 15:07:15;;;;;;;6.73;6.03;;;11.30;99.90;;;;;;5089063;28;20192;-66
2022/12/22 15:09:41;;;;;;;6.10;5.50;;;11.30;99.90;;;;;;5090800;28;20240;-66
2022/12/22 15:12:16;;;;;;;5.03;4.53;;;11.30;99.90;;;;;;5091515;28;20585;-66
2022/12/22 15:14:46;;;;;;;6.17;4.80;;;11.40;99.90;;;;;;5091834;28;20257;-66
2022/12/22 15:17:24;;;;;;;9.97;9.13;;;11.40;99.90;;;;;;5090365;28;20184;-66
2022/12/22 15:19:53;;;;;;;13.83;12.73;;;11.40;99.90;;;;;;5090231;28;20273;-66
2022/12/22 15:22:19;;;;;;;13.07;12.03;;;11.40;99.90;;;;;;5091365;28;20542;-66
2022/12/22 15:24:45;;;;;;;13.20;11.63;;;11.30;99.90;;;;;;5091355;28;20267;-66
2022/12/22 15:27:11;;;;;;;7.83;6.87;;;11.30;99.90;;;;;;5091445;28;20218;-67
2022/12/22 15:29:37;;;;;;;7.23;6.37;;;11.20;99.90;;;;;;5091541;28;20256;-67
2022/12/22 15:32:03;;;;;;;7.50;6.97;;;11.20;99.90;;;;;;5091722;28;20181;-66
2022/12/22 15:34:31;;;;;;;10.33;9.17;;;11.20;99.90;;;;;;5091827;28;20626;-66
2022/12/22 15:36:57;;;;;;;8.93;8.23;;;11.20;99.90;;;;;;5090967;28;20222;-66
2022/12/22 15:39:23;;;;;;;10.27;9.53;;;11.20;99.90;;;;;;5089964;28;20201;-66
2022/12/22 15:41:49;;;;;;;11.17;8.83;;;11.20;99.90;;;;;;5091232;28;20552;-66
2022/12/22 15:44:16;;;;;;;8.60;6.27;;;11.10;99.90;;;;;;5091145;28;20193;-67
2022/12/22 15:46:44;;;;;;;14.50;12.90;;;11.10;99.90;;;;;;5091104;28;20630;-67
2022/12/22 15:49:18;;;;;;;12.23;10.93;;;11.10;99.90;;;;;;5090912;28;20265;-66
2022/12/22 15:51:48;;;;;;;7.73;6.97;;;11.00;99.90;;;;;;5091102;28;20180;-66
2022/12/22 15:54:15;;;;;;;6.70;5.50;;;11.00;99.90;;;;;;5091434;28;20267;-66
2022/12/22 15:56:42;;;;;;;6.83;5.77;;;11.00;99.90;;;;;;5091121;28;20234;-66
2022/12/22 15:59:18;;;;;;;7.00;6.30;;;11.00;99.90;;;;;;5090966;28;20201;-66
2022/12/22 16:01:44;;;;;;;9.63;7.33;;;11.00;99.90;;;;;;5091215;28;20238;-66
2022/12/22 16:04:10;;;;;;;12.63;8.20;;;11.00;99.90;;;;;;5091082;28;20561;-66
2022/12/22 16:06:36;;;;;;;11.10;8.93;;;11.00;99.90;;;;;;5090890;28;20181;-66
2022/12/22 16:09:06;;;;;;;10.30;9.60;;;11.00;99.90;;;;;;5090428;28;20212;-66
2022/12/22 16:11:32;;;;;;;12.87;11.97;;;11.00;99.90;;;;;;5091081;28;20174;-67
2022/12/22 16:13:59;;;;;;;12.60;10.93;;;11.00;99.90;;;;;;5091074;28;20257;-67
2022/12/22 16:16:24;;;;;;;12.30;11.17;;;11.00;99.90;;;;;;5091091;28;20231;-67
2022/12/22 16:18:51;;;;;;;12.57;9.00;;;10.90;99.90;;;;;;5089474;28;20698;-67
2022/12/22 16:21:30;;;;;;;17.60;11.97;;;10.90;99.90;;;;;;5090834;28;20267;-68
2022/12/22 16:23:59;;;;;;;12.97;11.53;;;10.90;99.90;;;;;;5091160;28;20216;-67
2022/12/22 16:26:25;;;;;;;17.67;14.83;;;10.90;99.90;;;;;;5090922;28;20184;-67
2022/12/22 16:28:51;;;;;;;11.27;8.30;;;10.80;99.90;;;;;;5092533;28;20201;-67
2022/12/22 16:31:19;;;;;;;17.30;9.60;;;10.90;99.90;;;;;;5091770;28;20184;-67